Capitol Logistics 314




KSAN
San Diego International Airport
San Diego, California
KBWI
Baltimore/Washington International Airport
Baltimore, Maryland

Activity Log

Date Flight Route Aircraft Duration
03/06/2022 CPX314 ZZOOO2 IPL J18 FTI J19 STL J110 VHP NUSMM ANTHM3 B738 4h 13m

Route Details

Aircraft Information
Group: North America Fleet
Types: B738,B752,B762,B763
Route Data
Demand: L
Distance: 1992nm
Duration: 4h 54m
Recm'd Route: ZZOOO2 IPL J18 FTI J19 STL J110 VHP NUSMM ANTHM3
Origin Wx: KSAN 270551Z 30005KT 10SM OVC020 16/12 A3004 RMK AO2 SLP173 T01610117 10178 20161 51014
Dest. Wx: KBWI 270554Z 16004KT 5SM BR OVC004 20/19 A3001 RMK AO2 SLP161 T02000189 10211 20200 58023
Notes:

Financial History
Total Freight: 14,785lbs
Average Load: 14,785lbs/flt
Fuel Used: 22,383lbs
Avg. Fuel Used: 22,383lbs/flt
Fuel Expense: $5,596
Avg. Fuel Expense: $5,596
Avg. Fuel Cost: $0.25/lbs
Total Gross Income: $35,632
Pilot Pay: $239
Total Expenses: $7,072
Total Revenue: $21,975
Average Revenue: $35,631.85